createdAt,value
2018-12-22T00:02:24.149Z,11.10
2018-12-22T00:04:50.453Z,11.10
2018-12-22T00:07:17.604Z,11.10
2018-12-22T00:09:43.845Z,11.10
2018-12-22T00:12:17.121Z,11.10
2018-12-22T00:14:43.357Z,11.10
2018-12-22T00:17:09.624Z,11.10
2018-12-22T00:19:35.890Z,11.10
2018-12-22T00:22:02.281Z,11.10
2018-12-22T00:24:28.534Z,11.20
2018-12-22T00:26:55.105Z,11.20
2018-12-22T00:29:21.349Z,11.20
2018-12-22T00:31:47.615Z,11.20
2018-12-22T00:34:13.872Z,11.20
2018-12-22T00:36:40.129Z,11.20
2018-12-22T00:39:06.393Z,11.20
2018-12-22T00:41:32.681Z,11.20
2018-12-22T00:43:58.934Z,11.20
2018-12-22T00:46:25.182Z,11.20
2018-12-22T00:48:51.437Z,11.20
2018-12-22T00:51:17.678Z,11.20
2018-12-22T00:53:43.929Z,11.20
2018-12-22T00:56:10.177Z,11.30
2018-12-22T00:58:36.438Z,11.30
2018-12-22T01:01:02.723Z,11.30
2018-12-22T01:03:28.974Z,11.30
2018-12-22T01:05:55.337Z,11.20
2018-12-22T01:08:21.598Z,11.20
2018-12-22T01:10:47.854Z,11.20
2018-12-22T01:13:14.160Z,11.20
2018-12-22T01:15:40.418Z,11.20
2018-12-22T01:18:06.690Z,11.20
2018-12-22T01:20:32.945Z,11.30
2018-12-22T01:22:59.229Z,11.30
2018-12-22T01:25:25.488Z,11.30
2018-12-22T01:27:51.750Z,11.30
2018-12-22T01:30:18.001Z,11.30
2018-12-22T01:32:44.265Z,11.30
2018-12-22T01:38:02.877Z,11.30
2018-12-22T01:40:29.136Z,11.30
2018-12-22T01:42:55.421Z,11.30
2018-12-22T01:45:21.677Z,11.30
2018-12-22T01:47:47.933Z,11.30
2018-12-22T01:50:14.202Z,11.30
2018-12-22T01:52:40.520Z,11.30
2018-12-22T01:55:06.861Z,11.20
2018-12-22T01:57:33.112Z,11.20
2018-12-22T01:59:59.376Z,11.10
2018-12-22T02:02:25.648Z,11.20
2018-12-22T02:04:51.902Z,11.20
2018-12-22T02:07:18.146Z,11.20
2018-12-22T02:09:44.502Z,11.30
2018-12-22T02:12:10.865Z,11.20
2018-12-22T02:14:37.126Z,11.20
2018-12-22T02:17:03.374Z,11.20
2018-12-22T02:19:29.629Z,11.20
2018-12-22T02:21:55.933Z,11.20
2018-12-22T02:24:22.105Z,11.20
2018-12-22T02:26:48.359Z,11.20
2018-12-22T02:29:14.719Z,11.20
2018-12-22T02:31:41.142Z,11.20
2018-12-22T02:34:07.399Z,11.20
2018-12-22T02:36:33.674Z,11.20
2018-12-22T02:38:59.916Z,11.30
2018-12-22T02:41:26.229Z,11.20
2018-12-22T02:43:52.535Z,11.20
2018-12-22T02:46:18.784Z,11.20
2018-12-22T02:48:45.033Z,11.20
2018-12-22T02:51:11.312Z,11.30
2018-12-22T02:53:37.661Z,11.30
2018-12-22T02:56:03.928Z,11.30
2018-12-22T02:58:30.170Z,11.30
2018-12-22T03:00:56.438Z,11.30
2018-12-22T03:03:22.724Z,11.30
2018-12-22T03:05:49.082Z,11.30
2018-12-22T03:08:15.326Z,11.30
2018-12-22T03:10:41.708Z,11.30
2018-12-22T03:13:08.095Z,11.30
2018-12-22T03:15:34.293Z,11.30
2018-12-22T03:18:00.545Z,11.30
2018-12-22T03:20:26.796Z,11.30
2018-12-22T03:22:53.033Z,11.40
2018-12-22T03:25:19.302Z,11.40
2018-12-22T03:27:45.678Z,11.40
2018-12-22T03:30:12.141Z,11.30
2018-12-22T03:32:38.530Z,11.20
2018-12-22T03:35:05.093Z,11.00
2018-12-22T03:37:31.282Z,10.90
2018-12-22T03:39:57.509Z,10.80
2018-12-22T03:42:23.781Z,10.80
2018-12-22T03:44:50.029Z,10.80
2018-12-22T03:47:16.279Z,10.80
2018-12-22T03:49:42.518Z,10.90
2018-12-22T03:52:08.769Z,10.90
2018-12-22T03:54:34.997Z,11.00
2018-12-22T03:57:01.265Z,11.00
2018-12-22T03:59:27.559Z,10.90
2018-12-22T04:01:53.810Z,11.00
2018-12-22T04:04:20.051Z,11.00
2018-12-22T04:06:46.309Z,11.00
2018-12-22T04:09:12.554Z,11.10
2018-12-22T04:11:38.706Z,11.10
2018-12-22T04:14:05.076Z,11.10
2018-12-22T04:16:31.343Z,11.10
2018-12-22T04:18:57.581Z,11.10
2018-12-22T04:21:23.840Z,11.10
2018-12-22T04:23:50.118Z,11.20
2018-12-22T04:26:16.385Z,11.30
2018-12-22T04:28:42.638Z,11.30
2018-12-22T04:31:08.877Z,11.30
2018-12-22T04:33:35.131Z,11.30
2018-12-22T04:36:01.421Z,11.30
2018-12-22T04:38:27.609Z,11.40
2018-12-22T04:40:53.880Z,11.40
2018-12-22T04:43:20.236Z,11.40
2018-12-22T04:45:46.485Z,11.40
2018-12-22T04:48:12.754Z,11.50
2018-12-22T04:50:38.986Z,11.50
2018-12-22T04:53:05.247Z,11.50
2018-12-22T04:55:31.719Z,11.50
2018-12-22T04:57:57.973Z,11.30
2018-12-22T05:00:24.299Z,10.90
2018-12-22T05:02:50.683Z,10.60
2018-12-22T05:05:16.942Z,10.40
2018-12-22T05:07:43.186Z,10.40
2018-12-22T05:10:09.352Z,10.30
2018-12-22T05:12:35.588Z,10.30
2018-12-22T05:15:01.847Z,10.30
2018-12-22T05:17:28.197Z,10.30
2018-12-22T05:19:54.442Z,10.30
2018-12-22T05:22:20.688Z,10.30
2018-12-22T05:24:46.940Z,10.40
2018-12-22T05:27:13.189Z,10.40
2018-12-22T05:29:39.442Z,10.30
2018-12-22T05:32:05.809Z,10.40
2018-12-22T05:34:38.996Z,10.40
2018-12-22T05:37:05.253Z,10.40
2018-12-22T05:39:31.740Z,10.50
2018-12-22T05:41:57.969Z,10.50
2018-12-22T05:44:24.226Z,10.60
2018-12-22T05:46:50.490Z,10.60
2018-12-22T05:49:23.642Z,10.60
2018-12-22T05:51:49.897Z,10.50
2018-12-22T05:54:16.124Z,10.50
2018-12-22T05:56:42.378Z,10.50
2018-12-22T05:59:08.661Z,10.50
2018-12-22T06:01:34.947Z,10.70
2018-12-22T06:04:01.297Z,10.70
2018-12-22T06:06:27.553Z,10.70
2018-12-22T06:08:53.810Z,10.70
2018-12-22T06:11:20.184Z,10.70
2018-12-22T06:13:46.398Z,10.70
2018-12-22T06:16:12.658Z,10.70
2018-12-22T06:18:38.896Z,10.70
2018-12-22T06:21:05.157Z,10.70
2018-12-22T06:23:31.407Z,10.70
2018-12-22T06:25:57.669Z,10.70
2018-12-22T06:28:24.122Z,10.70
2018-12-22T06:30:50.559Z,10.70
2018-12-22T06:33:16.757Z,10.80
2018-12-22T06:35:42.998Z,10.90
2018-12-22T06:38:09.160Z,10.90
2018-12-22T06:40:35.302Z,10.90
2018-12-22T06:43:01.557Z,10.80
2018-12-22T06:45:27.810Z,10.70
2018-12-22T06:47:54.079Z,10.50
2018-12-22T06:50:20.582Z,10.40
2018-12-22T06:52:46.857Z,10.30
2018-12-22T06:55:13.093Z,10.10
2018-12-22T06:57:39.345Z,9.60
2018-12-22T07:00:08.334Z,9.20
2018-12-22T07:02:34.565Z,9.00
2018-12-22T07:05:02.220Z,8.90
2018-12-22T07:07:29.146Z,8.80
2018-12-22T07:09:55.433Z,8.70
2018-12-22T07:12:21.810Z,8.70
2018-12-22T07:14:48.066Z,8.80
2018-12-22T07:17:14.334Z,8.90
2018-12-22T07:19:40.691Z,9.00
2018-12-22T07:22:06.961Z,9.10
2018-12-22T07:24:33.201Z,9.10
2018-12-22T07:26:59.463Z,9.20
2018-12-22T07:29:25.701Z,9.30
2018-12-22T07:31:51.904Z,9.30
2018-12-22T07:34:18.146Z,9.40
2018-12-22T07:36:44.526Z,9.40
2018-12-22T07:39:10.930Z,9.40
2018-12-22T07:41:37.186Z,9.40
2018-12-22T07:44:03.446Z,9.50
2018-12-22T07:46:29.904Z,9.60
2018-12-22T07:48:56.851Z,9.60
2018-12-22T07:51:23.214Z,9.70
2018-12-22T07:53:49.468Z,9.70
2018-12-22T07:56:15.891Z,9.70
2018-12-22T07:58:42.344Z,9.70
2018-12-22T08:01:08.526Z,9.70
2018-12-22T08:03:34.955Z,9.70
2018-12-22T08:06:01.223Z,9.70
2018-12-22T08:08:27.482Z,9.70
2018-12-22T08:10:53.719Z,9.70
2018-12-22T08:13:20.022Z,9.60
2018-12-22T08:15:46.302Z,9.60
2018-12-22T08:18:12.768Z,9.60
2018-12-22T08:20:39.041Z,9.50
2018-12-22T08:23:05.331Z,9.50
2018-12-22T08:25:31.510Z,9.50
2018-12-22T08:27:57.757Z,9.50
2018-12-22T08:30:24.069Z,9.50
2018-12-22T08:32:50.456Z,9.50
2018-12-22T08:35:16.924Z,9.60
2018-12-22T08:37:43.332Z,9.60
2018-12-22T08:40:10.185Z,9.60
2018-12-22T08:42:37.417Z,9.70
2018-12-22T08:45:20.731Z,9.80
2018-12-22T08:47:46.933Z,9.70
2018-12-22T08:50:13.230Z,9.70
2018-12-22T08:52:39.506Z,9.60
2018-12-22T08:55:06.153Z,9.60
2018-12-22T08:57:32.533Z,9.60
2018-12-22T08:59:58.824Z,9.50
2018-12-22T09:02:25.084Z,9.50
2018-12-22T09:04:51.390Z,9.50
2018-12-22T09:07:17.665Z,9.60
2018-12-22T09:09:43.913Z,9.60
2018-12-22T09:12:10.166Z,9.60
2018-12-22T09:14:36.421Z,9.60
2018-12-22T09:17:02.678Z,9.70
2018-12-22T09:19:28.926Z,9.80
2018-12-22T09:21:55.179Z,9.80
2018-12-22T09:24:21.450Z,9.80
2018-12-22T09:26:47.829Z,9.80
2018-12-22T09:29:14.233Z,9.80
2018-12-22T09:31:40.512Z,9.70
2018-12-22T09:34:13.313Z,9.70
2018-12-22T09:36:35.066Z,9.80
2018-12-22T09:39:01.309Z,9.80
2018-12-22T09:41:27.750Z,9.80
2018-12-22T09:43:53.928Z,9.80
2018-12-22T09:46:20.185Z,9.90
2018-12-22T09:48:46.429Z,9.90
2018-12-22T09:51:12.830Z,10.00
2018-12-22T09:53:39.078Z,10.10
2018-12-22T09:56:05.382Z,10.00
2018-12-22T09:58:31.529Z,10.00
2018-12-22T10:00:57.801Z,9.90
2018-12-22T10:03:24.068Z,9.90
2018-12-22T10:05:50.332Z,9.80
2018-12-22T10:08:16.604Z,9.70
2018-12-22T10:10:42.921Z,9.70
2018-12-22T10:13:09.165Z,9.60
2018-12-22T10:15:35.439Z,9.60
2018-12-22T10:18:01.705Z,9.60
2018-12-22T10:20:27.844Z,9.70
2018-12-22T10:22:54.090Z,9.70
2018-12-22T10:25:20.337Z,9.80
2018-12-22T10:27:46.610Z,9.90
2018-12-22T10:30:13.051Z,9.90
2018-12-22T10:32:39.317Z,9.90
2018-12-22T10:35:10.460Z,10.00
2018-12-22T10:37:36.734Z,10.10
2018-12-22T10:40:05.120Z,10.20
2018-12-22T10:42:38.321Z,10.20
2018-12-22T10:45:06.837Z,10.20
2018-12-22T10:47:33.086Z,10.30
2018-12-22T10:49:59.351Z,10.40
2018-12-22T10:52:25.614Z,10.40
2018-12-22T10:54:51.845Z,10.40
2018-12-22T10:57:18.079Z,10.50
2018-12-22T10:59:51.063Z,10.50
2018-12-22T11:02:17.342Z,10.50
2018-12-22T11:04:43.509Z,10.60
2018-12-22T11:07:09.770Z,10.70
2018-12-22T11:09:36.110Z,10.70
2018-12-22T11:12:02.369Z,10.80
2018-12-22T11:14:28.727Z,10.90
2018-12-22T11:16:55.036Z,10.90
2018-12-22T11:19:21.349Z,10.90
2018-12-22T11:21:47.611Z,10.90
2018-12-22T11:24:13.976Z,11.00
2018-12-22T11:26:40.307Z,11.10
2018-12-22T11:29:06.577Z,11.10
2018-12-22T11:31:35.162Z,11.10
2018-12-22T11:34:01.089Z,11.10
2018-12-22T11:36:27.350Z,11.10
2018-12-22T11:38:53.537Z,11.10
2018-12-22T11:41:19.905Z,11.20
2018-12-22T11:43:46.186Z,11.20
2018-12-22T11:46:12.444Z,11.10
2018-12-22T11:48:39.549Z,11.00
2018-12-22T11:51:07.553Z,11.10
2018-12-22T11:53:33.717Z,11.10
2018-12-22T11:56:00.053Z,11.10
2018-12-22T11:58:26.345Z,11.20
2018-12-22T12:00:52.593Z,11.20
2018-12-22T12:03:18.870Z,11.20
2018-12-22T12:05:45.117Z,11.20
2018-12-22T12:08:12.218Z,11.30
2018-12-22T12:10:38.472Z,11.30
2018-12-22T12:13:04.826Z,11.30
2018-12-22T12:15:35.113Z,11.30
2018-12-22T12:21:17.489Z,11.20
2018-12-22T12:23:43.830Z,11.40
2018-12-22T12:26:10.007Z,11.50
2018-12-22T12:28:36.287Z,11.50
2018-12-22T12:31:02.776Z,11.50
2018-12-22T12:33:29.005Z,11.60
2018-12-22T12:35:55.266Z,11.60
2018-12-22T12:38:21.691Z,11.50
2018-12-22T12:40:48.086Z,11.50
2018-12-22T12:43:14.345Z,11.50
2018-12-22T12:45:40.622Z,11.50
2018-12-22T12:48:06.878Z,11.50
2018-12-22T12:50:33.291Z,11.40
2018-12-22T12:52:59.506Z,11.30
2018-12-22T12:55:25.834Z,11.30
2018-12-22T12:57:52.125Z,11.30
2018-12-22T13:00:19.653Z,11.40
2018-12-22T13:02:45.918Z,11.50
2018-12-22T13:05:12.322Z,11.50
2018-12-22T13:07:38.701Z,11.50
2018-12-22T13:10:14.142Z,11.60
2018-12-22T13:13:13.446Z,11.60
2018-12-22T13:15:40.287Z,11.50
2018-12-22T13:18:06.818Z,11.60
2018-12-22T13:20:33.244Z,11.60
2018-12-22T13:22:59.919Z,11.50
2018-12-22T13:25:26.431Z,11.50
2018-12-22T13:27:52.722Z,11.50
2018-12-22T13:30:18.933Z,11.60
2018-12-22T13:32:45.250Z,11.60
2018-12-22T13:35:11.520Z,11.60
2018-12-22T13:37:37.838Z,11.50
2018-12-22T13:40:10.173Z,11.60
2018-12-22T13:42:36.862Z,11.60
2018-12-22T13:45:08.003Z,11.60
2018-12-22T13:47:34.282Z,11.60
2018-12-22T13:50:00.789Z,11.70
2018-12-22T13:52:27.439Z,11.90
2018-12-22T13:54:54.132Z,11.90
2018-12-22T13:57:20.548Z,12.00
2018-12-22T13:59:46.925Z,12.10
2018-12-22T14:02:18.165Z,12.20
2018-12-22T14:04:41.518Z,12.20
2018-12-22T14:07:08.551Z,12.20
2018-12-22T14:09:35.078Z,12.20
2018-12-22T14:12:01.517Z,12.10
2018-12-22T14:14:28.513Z,12.00
2018-12-22T14:16:55.141Z,11.90
2018-12-22T14:19:21.645Z,11.80
2018-12-22T14:21:48.524Z,11.70
2018-12-22T14:24:16.811Z,11.60
2018-12-22T14:26:43.981Z,11.60
2018-12-22T14:29:10.216Z,11.50
2018-12-22T14:31:36.599Z,11.40
2018-12-22T14:34:12.607Z,11.30
2018-12-22T14:36:38.861Z,11.30
2018-12-22T14:39:06.643Z,11.20
2018-12-22T14:41:32.934Z,11.20
2018-12-22T14:43:59.209Z,11.10
2018-12-22T14:46:25.527Z,11.20
2018-12-22T14:48:51.774Z,11.10
2018-12-22T14:51:18.058Z,11.10
2018-12-22T14:53:44.776Z,11.00
2018-12-22T14:56:12.799Z,11.10
2018-12-22T14:58:39.624Z,11.10
2018-12-22T15:01:06.592Z,11.10
2018-12-22T15:03:33.414Z,11.00
2018-12-22T15:06:00.945Z,11.00
2018-12-22T15:08:27.697Z,11.10
2018-12-22T15:10:54.890Z,11.00
2018-12-22T15:13:21.531Z,11.00
2018-12-22T15:15:47.990Z,10.90
2018-12-22T15:18:14.638Z,10.80
2018-12-22T15:20:41.946Z,10.80
2018-12-22T15:23:08.688Z,10.70
2018-12-22T15:25:35.389Z,10.60
2018-12-22T15:28:02.099Z,10.60
2018-12-22T15:30:29.868Z,10.50
2018-12-22T15:32:56.631Z,10.50
2018-12-22T15:35:23.218Z,10.40
2018-12-22T15:37:49.880Z,10.30
2018-12-22T15:40:16.416Z,10.30
2018-12-22T15:42:42.737Z,10.20
2018-12-22T15:45:13.771Z,10.10
2018-12-22T15:47:41.060Z,10.10
2018-12-22T15:50:16.512Z,10.10
2018-12-22T15:52:42.990Z,10.10
2018-12-22T15:55:09.378Z,10.00
2018-12-22T15:57:35.674Z,10.00
2018-12-22T16:00:04.181Z,10.00
2018-12-22T16:02:30.612Z,9.90
2018-12-22T16:04:56.878Z,9.90
2018-12-22T16:07:23.113Z,9.90
2018-12-22T16:09:49.374Z,9.90
2018-12-22T16:12:15.622Z,9.90
2018-12-22T16:14:41.991Z,9.80
2018-12-22T16:17:08.242Z,9.80
2018-12-22T16:19:34.501Z,9.80
2018-12-22T16:22:00.763Z,9.80
2018-12-22T16:24:27.077Z,9.70
2018-12-22T16:26:53.342Z,9.80
2018-12-22T16:29:20.973Z,9.80
2018-12-22T16:31:47.340Z,9.80
2018-12-22T16:34:13.615Z,9.70
2018-12-22T16:36:39.882Z,9.70
2018-12-22T16:39:06.346Z,9.70
2018-12-22T16:41:32.665Z,9.70
2018-12-22T16:43:58.954Z,9.70
2018-12-22T16:46:25.205Z,9.60
2018-12-22T16:48:51.462Z,9.60
2018-12-22T16:51:17.743Z,9.60
2018-12-22T16:53:43.997Z,9.70
2018-12-22T16:56:10.377Z,9.60
2018-12-22T16:58:36.629Z,9.60
2018-12-22T17:01:10.817Z,9.50
2018-12-22T17:03:37.067Z,9.50
2018-12-22T17:06:05.975Z,9.50
2018-12-22T17:08:32.871Z,9.60
2018-12-22T17:10:59.615Z,9.50
2018-12-22T17:13:25.998Z,9.50
2018-12-22T17:15:52.498Z,9.40
2018-12-22T17:18:18.770Z,9.40
2018-12-22T17:20:45.478Z,9.50
2018-12-22T17:23:23.858Z,9.40
2018-12-22T17:25:52.579Z,9.40
2018-12-22T17:28:18.842Z,9.40
2018-12-22T17:30:45.112Z,9.40
2018-12-22T17:33:18.643Z,9.40
2018-12-22T17:35:39.814Z,9.40
2018-12-22T17:38:06.083Z,9.30
2018-12-22T17:40:32.345Z,9.30
2018-12-22T17:42:58.626Z,9.30
2018-12-22T17:45:24.938Z,9.30
2018-12-22T17:47:51.210Z,9.40
2018-12-22T17:50:17.490Z,9.40
2018-12-22T17:52:43.768Z,9.50
2018-12-22T17:55:10.093Z,9.60
2018-12-22T17:57:36.430Z,9.60
2018-12-22T18:00:05.954Z,9.60
2018-12-22T18:02:32.422Z,9.60
2018-12-22T18:04:58.767Z,9.60
2018-12-22T18:07:25.046Z,9.60
2018-12-22T18:09:51.320Z,9.50
2018-12-22T18:12:17.606Z,9.60
2018-12-22T18:14:43.857Z,9.50
2018-12-22T18:17:10.289Z,9.50
2018-12-22T18:19:36.639Z,9.40
2018-12-22T18:22:03.047Z,9.40
2018-12-22T18:24:29.309Z,9.40
2018-12-22T18:26:55.561Z,9.40
2018-12-22T18:29:21.854Z,9.30
2018-12-22T18:31:48.124Z,9.30
2018-12-22T18:34:14.462Z,9.30
2018-12-22T18:36:40.775Z,9.30
2018-12-22T18:39:07.160Z,9.20
2018-12-22T18:41:33.539Z,9.30
2018-12-22T18:43:59.803Z,9.30
2018-12-22T18:46:26.073Z,9.20
2018-12-22T18:48:52.410Z,9.20
2018-12-22T18:51:18.650Z,9.20
2018-12-22T18:53:44.924Z,9.20
2018-12-22T18:56:11.169Z,9.20
2018-12-22T18:58:37.590Z,9.10
2018-12-22T19:01:04.034Z,9.10
2018-12-22T19:03:30.413Z,9.10
2018-12-22T19:05:56.662Z,9.10
2018-12-22T19:08:22.949Z,9.00
2018-12-22T19:10:49.198Z,9.00
2018-12-22T19:13:15.458Z,9.00
2018-12-22T19:15:41.765Z,9.00
2018-12-22T19:18:08.031Z,9.00
2018-12-22T19:20:37.845Z,8.90
2018-12-22T19:23:04.514Z,9.00
2018-12-22T19:25:30.841Z,8.90
2018-12-22T19:27:57.098Z,8.90
2018-12-22T19:30:23.349Z,8.90
2018-12-22T19:32:49.614Z,8.90
2018-12-22T19:35:15.893Z,8.80
2018-12-22T19:37:42.102Z,8.90
2018-12-22T19:40:08.435Z,9.00
2018-12-22T19:42:34.648Z,9.00
2018-12-22T19:45:00.930Z,9.00
2018-12-22T19:47:27.220Z,9.00
2018-12-22T19:49:53.498Z,9.10
2018-12-22T19:52:19.867Z,9.00
2018-12-22T19:54:46.173Z,9.00
2018-12-22T19:57:12.421Z,9.00
2018-12-22T19:59:38.852Z,8.90
2018-12-22T20:02:05.427Z,9.00
2018-12-22T20:04:31.690Z,9.00
2018-12-22T20:06:58.045Z,9.00
2018-12-22T20:09:24.307Z,9.00
2018-12-22T20:11:50.660Z,9.00
2018-12-22T20:14:16.918Z,9.00
2018-12-22T20:16:43.186Z,8.90
2018-12-22T20:19:09.441Z,8.90
2018-12-22T20:21:35.806Z,8.80
2018-12-22T20:24:02.165Z,8.80
2018-12-22T20:26:28.447Z,8.80
2018-12-22T20:28:54.697Z,8.80
2018-12-22T20:31:21.042Z,8.80
2018-12-22T20:33:47.294Z,8.80
2018-12-22T20:36:13.489Z,8.70
2018-12-22T20:38:40.753Z,8.70
2018-12-22T20:41:07.378Z,8.60
2018-12-22T20:43:33.701Z,8.60
2018-12-22T20:46:00.056Z,8.60
2018-12-22T20:48:26.309Z,8.60
2018-12-22T20:50:52.586Z,8.60
2018-12-22T20:53:18.978Z,8.60
2018-12-22T20:55:45.265Z,8.70
2018-12-22T20:58:11.514Z,8.70
2018-12-22T21:00:37.762Z,8.80
2018-12-22T21:03:04.034Z,8.80
2018-12-22T21:05:32.134Z,8.80
2018-12-22T21:07:58.321Z,8.70
2018-12-22T21:10:24.574Z,8.70
2018-12-22T21:12:50.858Z,8.70
2018-12-22T21:15:17.146Z,8.70
2018-12-22T21:17:43.660Z,8.70
2018-12-22T21:20:09.896Z,8.70
2018-12-22T21:22:36.173Z,8.70
2018-12-22T21:25:02.856Z,8.60
2018-12-22T21:27:29.132Z,8.70
2018-12-22T21:29:55.402Z,8.60
2018-12-22T21:32:21.658Z,8.70
2018-12-22T21:34:48.026Z,8.70
2018-12-22T21:37:14.357Z,8.80
2018-12-22T21:39:40.609Z,8.70
2018-12-22T21:42:06.961Z,8.70
2018-12-22T21:44:33.225Z,8.60
2018-12-22T21:46:59.485Z,8.60
2018-12-22T21:49:25.839Z,8.60
2018-12-22T21:51:52.074Z,8.60
2018-12-22T21:54:18.350Z,8.70
2018-12-22T21:56:44.930Z,8.60
2018-12-22T21:59:11.201Z,8.60
2018-12-22T22:01:37.437Z,8.60
2018-12-22T22:04:03.698Z,8.70
2018-12-22T22:06:30.049Z,8.70
2018-12-22T22:08:56.339Z,8.80
2018-12-22T22:11:22.581Z,8.90
2018-12-22T22:13:48.822Z,8.90
2018-12-22T22:16:15.085Z,8.90
2018-12-22T22:18:41.348Z,8.90
2018-12-22T22:21:07.609Z,9.00
2018-12-22T22:23:33.861Z,8.90
2018-12-22T22:26:00.123Z,9.00
2018-12-22T22:28:26.382Z,9.00
2018-12-22T22:30:52.709Z,8.90
2018-12-22T22:33:18.989Z,8.90
2018-12-22T22:35:45.302Z,8.90
2018-12-22T22:38:11.565Z,8.90
2018-12-22T22:40:37.833Z,8.80
2018-12-22T22:43:04.074Z,8.90
2018-12-22T22:45:30.446Z,8.90
2018-12-22T22:47:56.698Z,8.80
2018-12-22T22:50:22.958Z,8.80
2018-12-22T22:52:49.204Z,8.80
2018-12-22T22:55:15.445Z,8.90
2018-12-22T22:57:41.719Z,8.90
2018-12-22T23:00:10.329Z,8.90
2018-12-22T23:02:36.790Z,8.90
2018-12-22T23:05:03.876Z,8.90
2018-12-22T23:07:30.134Z,9.00
2018-12-22T23:09:56.394Z,9.00
2018-12-22T23:12:29.533Z,9.00
2018-12-22T23:14:55.865Z,8.90
2018-12-22T23:17:22.189Z,8.90
2018-12-22T23:19:48.658Z,8.90
2018-12-22T23:22:14.911Z,8.90
2018-12-22T23:24:41.150Z,8.90
2018-12-22T23:27:07.488Z,8.90
2018-12-22T23:29:33.747Z,9.00
2018-12-22T23:32:00.022Z,9.00
2018-12-22T23:34:26.271Z,9.00
2018-12-22T23:36:52.726Z,8.90
2018-12-22T23:39:19.018Z,9.00
2018-12-22T23:41:45.281Z,9.00
2018-12-22T23:44:11.602Z,8.90
2018-12-22T23:46:37.895Z,8.90
2018-12-22T23:49:04.138Z,9.00
2018-12-22T23:51:30.401Z,8.90
2018-12-22T23:53:56.686Z,8.90
2018-12-22T23:56:22.977Z,8.90
2018-12-22T23:58:49.319Z,8.90
